createdAt,value
2018-11-13T00:01:39.311Z,96.11
2018-11-13T00:04:07.568Z,94.96
2018-11-13T00:06:35.807Z,95.78
2018-11-13T00:09:05.056Z,95.51
2018-11-13T00:11:33.337Z,94.92
2018-11-13T00:14:01.483Z,95.39
2018-11-13T00:16:29.709Z,95.31
2018-11-13T00:18:57.938Z,94.26
2018-11-13T00:21:26.169Z,94.54
2018-11-13T00:23:56.575Z,94.56
2018-11-13T00:26:24.743Z,94.33
2018-11-13T00:28:52.970Z,95.05
2018-11-13T00:31:21.174Z,94.86
2018-11-13T00:33:50.426Z,94.42
2018-11-13T00:36:18.662Z,94.25
2018-11-13T00:38:46.906Z,93.64
2018-11-13T00:41:15.132Z,94.36
2018-11-13T00:43:43.374Z,93.83
2018-11-13T00:46:11.623Z,93.97
2018-11-13T00:48:39.842Z,93.49
2018-11-13T00:51:14.195Z,93.16
2018-11-13T00:53:42.414Z,92.53
2018-11-13T00:56:10.650Z,93.63
2018-11-13T00:58:38.879Z,94.01
2018-11-13T01:01:07.159Z,94.26
2018-11-13T01:03:35.385Z,95.63
2018-11-13T01:06:03.662Z,95.52
2018-11-13T01:08:31.929Z,94.72
2018-11-13T01:11:00.144Z,94.70
2018-11-13T01:13:28.730Z,95.04
2018-11-13T01:15:56.559Z,94.58
2018-11-13T01:18:24.794Z,95.14
2018-11-13T01:20:53.013Z,95.41
2018-11-13T01:23:21.247Z,95.10
2018-11-13T01:25:49.465Z,95.13
2018-11-13T01:28:17.724Z,95.40
2018-11-13T01:30:45.951Z,95.70
2018-11-13T01:33:14.210Z,95.24
2018-11-13T01:35:42.438Z,96.01
2018-11-13T01:38:10.698Z,96.28
2018-11-13T01:40:38.892Z,95.11
2018-11-13T01:43:07.189Z,95.80
2018-11-13T01:45:35.410Z,95.00
2018-11-13T01:48:03.694Z,94.83
2018-11-13T01:50:31.854Z,94.57
2018-11-13T01:53:00.097Z,94.10
2018-11-13T01:55:28.318Z,94.44
2018-11-13T01:57:56.545Z,94.32
2018-11-13T02:00:24.877Z,94.46
2018-11-13T02:02:54.250Z,95.20
2018-11-13T02:05:23.657Z,95.35
2018-11-13T02:07:52.669Z,94.23
2018-11-13T02:10:20.998Z,93.18
2018-11-13T02:12:49.721Z,93.71
2018-11-13T02:15:18.497Z,93.25
2018-11-13T02:17:46.826Z,91.05
2018-11-13T02:20:17.011Z,91.82
2018-11-13T02:22:45.268Z,91.71
2018-11-13T02:25:14.783Z,91.04
2018-11-13T02:27:43.366Z,91.12
2018-11-13T02:30:16.773Z,92.41
2018-11-13T02:32:45.593Z,89.88
2018-11-13T02:35:14.382Z,89.94
2018-11-13T02:37:42.818Z,89.62
2018-11-13T02:40:11.049Z,88.89
2018-11-13T02:42:39.589Z,89.22
2018-11-13T02:45:11.633Z,88.44
2018-11-13T02:47:40.084Z,87.67
2018-11-13T02:50:09.856Z,87.26
2018-11-13T02:52:38.720Z,88.14
2018-11-13T02:55:07.364Z,88.50
2018-11-13T02:57:35.570Z,88.12
2018-11-13T03:00:04.366Z,87.60
2018-11-13T03:02:32.705Z,89.71
2018-11-13T03:05:00.933Z,88.33
2018-11-13T03:07:29.166Z,87.27
2018-11-13T03:09:57.416Z,88.18
2018-11-13T03:12:25.650Z,88.05
2018-11-13T03:14:53.898Z,87.93
2018-11-13T03:17:22.107Z,88.48
2018-11-13T03:19:50.369Z,87.57
2018-11-13T03:22:18.571Z,88.42
2018-11-13T03:24:46.874Z,88.02
2018-11-13T03:27:17.314Z,87.75
2018-11-13T03:29:47.018Z,87.99
2018-11-13T03:32:16.593Z,88.72
2018-11-13T03:34:47.623Z,88.16
2018-11-13T03:37:16.886Z,88.30
2018-11-13T03:39:45.114Z,88.42
2018-11-13T03:42:13.355Z,87.36
2018-11-13T03:44:41.560Z,88.36
2018-11-13T03:47:09.777Z,88.01
2018-11-13T03:49:37.993Z,87.89
2018-11-13T03:52:06.287Z,88.08
2018-11-13T03:54:34.509Z,87.59
2018-11-13T03:57:02.739Z,87.29
2018-11-13T03:59:30.970Z,88.85
2018-11-13T04:01:59.202Z,87.89
2018-11-13T04:04:27.471Z,89.43
2018-11-13T04:06:55.793Z,88.82
2018-11-13T04:09:24.058Z,88.82
2018-11-13T04:11:52.343Z,89.18
2018-11-13T04:14:20.565Z,89.42
2018-11-13T04:16:48.843Z,88.13
2018-11-13T04:19:17.099Z,88.09
2018-11-13T04:21:49.737Z,88.84
2018-11-13T04:24:17.999Z,88.96
2018-11-13T04:26:46.244Z,87.10
2018-11-13T04:29:15.563Z,87.73
2018-11-13T04:31:43.807Z,87.75
2018-11-13T04:34:12.049Z,87.31
2018-11-13T04:36:40.286Z,86.67
2018-11-13T04:39:08.604Z,86.71
2018-11-13T04:41:36.907Z,87.26
2018-11-13T04:44:05.405Z,87.91
2018-11-13T04:46:33.613Z,88.75
2018-11-13T04:49:01.846Z,88.13
2018-11-13T04:51:30.118Z,87.96
2018-11-13T04:53:58.446Z,87.39
2018-11-13T04:56:26.721Z,86.72
2018-11-13T04:58:55.087Z,86.25
2018-11-13T05:01:23.342Z,86.26
2018-11-13T05:03:51.577Z,87.04
2018-11-13T05:08:46.311Z,88.47
2018-11-13T05:11:14.539Z,88.98
2018-11-13T05:13:42.758Z,87.81
2018-11-13T05:16:11.014Z,88.66
2018-11-13T05:18:39.317Z,87.52
2018-11-13T05:21:07.575Z,88.29
2018-11-13T05:23:35.847Z,87.49
2018-11-13T05:26:04.186Z,87.52
2018-11-13T05:28:33.469Z,88.01
2018-11-13T05:31:01.711Z,88.82
2018-11-13T05:33:29.979Z,88.04
2018-11-13T05:35:58.225Z,88.43
2018-11-13T05:38:26.529Z,88.41
2018-11-13T05:40:54.770Z,88.26
2018-11-13T05:43:23.007Z,88.21
2018-11-13T05:45:51.262Z,88.98
2018-11-13T05:48:19.516Z,87.87
2018-11-13T05:50:48.124Z,87.64
2018-11-13T05:53:16.545Z,87.42
2018-11-13T05:55:45.042Z,87.89
2018-11-13T05:58:13.666Z,87.32
2018-11-13T06:00:42.184Z,86.40
2018-11-13T06:03:10.571Z,86.08
2018-11-13T06:05:38.998Z,86.16
2018-11-13T06:08:07.585Z,86.73
2018-11-13T06:10:36.012Z,87.31
2018-11-13T06:13:04.279Z,86.36
2018-11-13T06:15:32.537Z,86.57
2018-11-13T06:18:00.879Z,85.81
2018-11-13T06:20:29.088Z,85.58
2018-11-13T06:22:57.358Z,84.84
2018-11-13T06:25:25.628Z,82.84
2018-11-13T06:27:53.874Z,83.15
2018-11-13T06:30:24.506Z,82.35
2018-11-13T06:32:52.935Z,82.61
2018-11-13T06:35:21.227Z,81.62
2018-11-13T06:37:49.454Z,81.99
2018-11-13T06:40:17.837Z,82.14
2018-11-13T06:42:46.124Z,81.22
2018-11-13T06:45:17.534Z,80.51
2018-11-13T06:47:46.443Z,80.30
2018-11-13T06:50:14.779Z,80.20
2018-11-13T06:52:43.885Z,79.77
2018-11-13T06:55:17.397Z,79.99
2018-11-13T06:57:45.724Z,79.46
2018-11-13T07:00:14.267Z,80.12
2018-11-13T07:02:42.534Z,79.77
2018-11-13T07:05:13.257Z,80.08
2018-11-13T07:07:42.396Z,79.12
2018-11-13T07:10:13.289Z,79.13
2018-11-13T07:12:43.015Z,79.28
2018-11-13T07:15:12.886Z,79.17
2018-11-13T07:17:41.813Z,79.55
2018-11-13T07:20:10.071Z,78.21
2018-11-13T07:22:38.438Z,78.90
2018-11-13T07:25:09.989Z,77.99
2018-11-13T07:27:39.006Z,78.42
2018-11-13T07:30:13.978Z,78.67
2018-11-13T07:32:42.382Z,78.51
2018-11-13T07:35:12.039Z,78.86
2018-11-13T07:37:42.714Z,78.45
2018-11-13T07:40:10.949Z,78.56
2018-11-13T07:42:39.201Z,78.79
2018-11-13T07:47:36.181Z,78.98
2018-11-13T07:50:05.249Z,79.15
2018-11-13T07:52:33.484Z,79.23
2018-11-13T07:55:01.702Z,78.53
2018-11-13T07:57:29.967Z,78.90
2018-11-13T07:59:58.232Z,78.06
2018-11-13T08:02:27.567Z,77.60
2018-11-13T08:04:55.816Z,77.61
2018-11-13T08:07:24.100Z,76.25
2018-11-13T08:09:52.302Z,76.27
2018-11-13T08:12:20.583Z,76.93
2018-11-13T08:14:48.817Z,76.13
2018-11-13T08:17:17.130Z,75.75
2018-11-13T08:19:45.397Z,76.42
2018-11-13T08:22:13.716Z,74.86
2018-11-13T08:24:41.848Z,73.75
2018-11-13T08:27:10.080Z,75.37
2018-11-13T08:29:38.337Z,73.67
2018-11-13T08:32:06.537Z,72.56
2018-11-13T08:34:34.781Z,72.98
2018-11-13T08:37:04.139Z,73.43
2018-11-13T08:39:32.356Z,73.06
2018-11-13T08:42:00.581Z,72.83
2018-11-13T08:44:28.819Z,72.32
2018-11-13T08:46:57.037Z,72.88
2018-11-13T08:49:25.313Z,72.45
2018-11-13T08:51:53.537Z,72.13
2018-11-13T08:54:21.754Z,71.08
2018-11-13T08:56:49.971Z,70.89
2018-11-13T08:59:18.321Z,71.54
2018-11-13T09:01:46.499Z,71.58
2018-11-13T09:04:14.718Z,72.14
2018-11-13T09:06:42.934Z,72.25
2018-11-13T09:09:12.778Z,71.45
2018-11-13T09:11:41.150Z,71.14
2018-11-13T09:14:09.543Z,71.17
2018-11-13T09:16:37.749Z,70.84
2018-11-13T09:19:06.214Z,70.98
2018-11-13T09:21:34.325Z,71.84
2018-11-13T09:24:02.685Z,70.78
2018-11-13T09:26:31.038Z,70.54
2018-11-13T09:28:59.407Z,71.40
2018-11-13T09:31:27.879Z,70.77
2018-11-13T09:33:55.992Z,69.90
2018-11-13T09:36:24.208Z,69.18
2018-11-13T09:38:52.542Z,68.44
2018-11-13T09:41:20.766Z,67.86
2018-11-13T09:43:48.997Z,66.38
2018-11-13T09:46:17.217Z,66.91
2018-11-13T09:48:45.432Z,66.43
2018-11-13T09:51:13.663Z,67.14
2018-11-13T09:53:41.934Z,67.08
2018-11-13T09:56:10.172Z,66.08
2018-11-13T09:58:38.576Z,65.99
2018-11-13T10:01:07.433Z,64.46
2018-11-13T10:03:36.099Z,64.07
2018-11-13T10:06:03.660Z,64.38
2018-11-13T10:08:31.896Z,64.01
2018-11-13T10:11:00.117Z,63.99
2018-11-13T10:13:28.405Z,62.38
2018-11-13T10:15:56.629Z,63.15
2018-11-13T10:18:26.147Z,64.13
2018-11-13T10:20:54.194Z,64.99
2018-11-13T10:23:22.430Z,63.58
2018-11-13T10:25:50.891Z,62.64
2018-11-13T10:28:19.120Z,63.80
2018-11-13T10:30:49.353Z,62.42
2018-11-13T10:33:17.563Z,63.14
2018-11-13T10:35:45.788Z,62.97
2018-11-13T10:38:14.010Z,62.61
2018-11-13T10:40:42.338Z,62.62
2018-11-13T10:43:10.458Z,61.74
2018-11-13T10:45:38.705Z,63.01
2018-11-13T10:48:06.927Z,60.75
2018-11-13T10:50:35.140Z,60.39
2018-11-13T10:53:03.381Z,61.23
2018-11-13T10:55:31.604Z,61.18
2018-11-13T10:57:59.915Z,60.44
2018-11-13T11:00:28.516Z,60.61
2018-11-13T11:03:02.037Z,61.18
2018-11-13T11:05:30.214Z,61.02
2018-11-13T11:07:58.790Z,59.91
2018-11-13T11:10:27.071Z,59.69
2018-11-13T11:12:55.362Z,60.06
2018-11-13T11:15:23.707Z,60.06
2018-11-13T11:17:52.182Z,60.50
2018-11-13T11:20:20.415Z,61.02
2018-11-13T11:22:48.685Z,58.66
2018-11-13T11:25:16.953Z,58.71
2018-11-13T11:27:45.189Z,56.95
2018-11-13T11:30:15.301Z,58.08
2018-11-13T11:32:43.546Z,57.46
2018-11-13T11:35:12.001Z,57.30
2018-11-13T11:37:40.841Z,57.62
2018-11-13T11:40:09.748Z,55.84
2018-11-13T11:42:38.336Z,56.48
2018-11-13T11:45:08.507Z,56.46
2018-11-13T11:47:36.775Z,55.90
2018-11-13T11:50:05.960Z,56.02
2018-11-13T11:52:34.186Z,56.46
2018-11-13T11:55:02.402Z,54.68
2018-11-13T11:57:30.703Z,54.89
2018-11-13T11:59:58.905Z,54.57
2018-11-13T12:02:27.124Z,53.88
2018-11-13T12:04:55.388Z,54.10
2018-11-13T12:07:23.629Z,53.08
2018-11-13T12:09:51.862Z,54.21
2018-11-13T12:12:20.162Z,52.25
2018-11-13T12:14:48.285Z,52.74
2018-11-13T12:17:16.507Z,52.56
2018-11-13T12:19:44.732Z,52.91
2018-11-13T12:22:12.949Z,54.42
2018-11-13T12:24:41.162Z,53.04
2018-11-13T12:27:12.306Z,52.85
2018-11-13T12:29:41.019Z,52.81
2018-11-13T12:32:09.571Z,55.13
2018-11-13T12:34:37.824Z,55.23
2018-11-13T12:37:06.010Z,54.28
2018-11-13T12:39:34.221Z,54.06
2018-11-13T12:42:02.441Z,53.51
2018-11-13T12:44:30.658Z,53.43
2018-11-13T12:46:58.924Z,52.60
2018-11-13T12:49:27.137Z,52.40
2018-11-13T12:52:00.425Z,53.01
2018-11-13T12:54:28.634Z,53.04
2018-11-13T12:56:56.841Z,53.27
2018-11-13T12:59:25.098Z,53.00
2018-11-13T13:01:53.420Z,54.65
2018-11-13T13:04:21.608Z,54.12
2018-11-13T13:06:49.831Z,55.76
2018-11-13T13:09:18.062Z,55.74
2018-11-13T13:11:46.282Z,55.91
2018-11-13T13:14:16.433Z,55.41
2018-11-13T13:16:44.907Z,54.69
2018-11-13T13:19:13.257Z,55.80
2018-11-13T13:21:41.504Z,54.99
2018-11-13T13:24:09.686Z,55.41
2018-11-13T13:26:38.419Z,56.16
2018-11-13T13:29:07.001Z,56.01
2018-11-13T13:31:35.247Z,56.98
2018-11-13T13:34:03.465Z,55.18
2018-11-13T13:36:31.690Z,55.11
2018-11-13T13:38:59.901Z,55.34
2018-11-13T13:41:28.128Z,55.95
2018-11-13T13:43:56.349Z,55.53
2018-11-13T13:46:24.575Z,56.27
2018-11-13T13:48:52.779Z,55.69
2018-11-13T13:51:20.994Z,56.22
2018-11-13T13:53:49.265Z,55.35
2018-11-13T13:56:17.455Z,55.65
2018-11-13T13:58:45.669Z,55.83
2018-11-13T14:01:14.085Z,55.17
2018-11-13T14:03:42.272Z,55.60
2018-11-13T14:06:10.552Z,55.80
2018-11-13T14:08:38.717Z,55.76
2018-11-13T14:11:06.946Z,56.10
2018-11-13T14:13:35.142Z,57.34
2018-11-13T14:16:03.386Z,57.69
2018-11-13T14:18:31.605Z,57.88
2018-11-13T14:20:59.856Z,57.96
2018-11-13T14:23:28.054Z,57.33
2018-11-13T14:25:56.297Z,57.92
2018-11-13T14:28:24.518Z,57.84
2018-11-13T14:30:52.710Z,56.92
2018-11-13T14:33:20.922Z,57.74
2018-11-13T14:35:49.122Z,57.77
2018-11-13T14:38:17.316Z,59.21
2018-11-13T14:40:46.718Z,57.89
2018-11-13T14:43:15.180Z,58.98
2018-11-13T14:45:43.904Z,58.86
2018-11-13T14:48:12.557Z,57.72
2018-11-13T14:50:41.262Z,57.92
2018-11-13T14:53:10.072Z,58.59
2018-11-13T14:55:39.749Z,59.47
2018-11-13T14:58:09.079Z,57.61
2018-11-13T15:00:37.934Z,58.85
2018-11-13T15:03:07.556Z,58.64
2018-11-13T15:05:35.977Z,57.52
2018-11-13T15:08:05.387Z,58.59
2018-11-13T15:10:41.441Z,58.57
2018-11-13T15:13:10.157Z,57.68
2018-11-13T15:15:38.397Z,59.02
2018-11-13T15:18:07.101Z,59.39
2018-11-13T15:20:35.329Z,59.33
2018-11-13T15:23:03.697Z,59.07
2018-11-13T15:25:31.898Z,58.01
2018-11-13T15:28:00.111Z,59.43
2018-11-13T15:30:30.054Z,59.03
2018-11-13T15:33:03.765Z,59.31
2018-11-13T15:35:31.969Z,58.67
2018-11-13T15:38:00.202Z,58.96
2018-11-13T15:40:29.565Z,60.06
2018-11-13T15:42:57.779Z,59.71
2018-11-13T15:45:27.035Z,59.15
2018-11-13T15:48:03.880Z,60.60
2018-11-13T15:50:33.973Z,59.92
2018-11-13T15:53:02.245Z,59.24
2018-11-13T15:55:30.585Z,61.02
2018-11-13T15:58:00.355Z,61.55
2018-11-13T16:00:30.769Z,61.02
2018-11-13T16:03:00.333Z,60.50
2018-11-13T16:05:35.394Z,60.45
2018-11-13T16:08:08.505Z,60.93
2018-11-13T16:10:36.814Z,61.19
2018-11-13T16:13:05.093Z,60.92
2018-11-13T16:15:37.925Z,61.43
2018-11-13T16:18:07.570Z,60.91
2018-11-13T16:20:35.834Z,61.84
2018-11-13T16:23:04.072Z,62.36
2018-11-13T16:25:32.257Z,62.93
2018-11-13T16:28:00.465Z,62.89
2018-11-13T16:30:32.162Z,62.90
2018-11-13T16:33:00.246Z,63.43
2018-11-13T16:35:29.219Z,63.83
2018-11-13T16:37:58.500Z,64.42
2018-11-13T16:40:29.814Z,64.27
2018-11-13T16:42:58.153Z,63.86
2018-11-13T16:45:34.046Z,64.31
2018-11-13T16:48:02.903Z,65.97
2018-11-13T16:50:34.282Z,66.59
2018-11-13T16:53:02.490Z,66.73
2018-11-13T16:55:36.106Z,66.71
2018-11-13T16:58:05.456Z,66.43
2018-11-13T17:00:33.744Z,66.60
2018-11-13T17:03:02.046Z,67.45
2018-11-13T17:05:30.441Z,67.16
2018-11-13T17:07:58.515Z,67.70
2018-11-13T17:10:30.936Z,68.05
2018-11-13T17:12:59.742Z,68.66
2018-11-13T17:15:29.019Z,67.73
2018-11-13T17:17:58.333Z,69.30
2018-11-13T17:20:26.596Z,68.38
2018-11-13T17:22:54.804Z,69.09
2018-11-13T17:25:24.381Z,68.67
2018-11-13T17:27:53.478Z,68.67
2018-11-13T17:30:24.792Z,68.94
2018-11-13T17:32:53.478Z,69.29
2018-11-13T17:35:22.919Z,68.74
2018-11-13T17:37:51.856Z,69.95
2018-11-13T17:40:21.618Z,69.98
2018-11-13T17:42:50.731Z,68.97
2018-11-13T17:45:20.221Z,70.59
2018-11-13T17:47:48.793Z,70.31
2018-11-13T17:50:19.645Z,70.26
2018-11-13T17:52:48.405Z,69.72
2018-11-13T17:55:17.434Z,70.99
2018-11-13T17:57:46.522Z,70.60
2018-11-13T18:00:29.069Z,71.40
2018-11-13T18:03:00.454Z,70.55
2018-11-13T18:05:29.193Z,70.94
2018-11-13T18:07:58.571Z,70.04
2018-11-13T18:10:27.564Z,71.13
2018-11-13T18:12:55.810Z,71.14
2018-11-13T18:15:25.165Z,71.48
2018-11-13T18:17:53.901Z,71.15
2018-11-13T18:20:24.489Z,71.46
2018-11-13T18:22:52.693Z,72.07
2018-11-13T18:25:20.928Z,71.98
2018-11-13T18:27:50.414Z,71.58
2018-11-13T18:30:20.693Z,71.93
2018-11-13T18:32:49.218Z,72.38
2018-11-13T18:35:20.664Z,72.64
2018-11-13T18:37:49.494Z,72.67
2018-11-13T18:40:18.558Z,74.22
2018-11-13T18:42:48.159Z,73.64
2018-11-13T18:45:20.042Z,73.46
2018-11-13T18:47:48.278Z,73.48
2018-11-13T18:50:18.234Z,74.41
2018-11-13T18:52:46.391Z,73.93
2018-11-13T18:55:15.016Z,75.10
2018-11-13T18:57:43.469Z,74.26
2018-11-13T19:00:13.638Z,74.96
2018-11-13T19:02:41.922Z,75.35
2018-11-13T19:05:11.227Z,75.59
2018-11-13T19:07:39.545Z,75.23
2018-11-13T19:10:30.970Z,76.23
2018-11-13T19:13:00.342Z,76.75
2018-11-13T19:15:29.402Z,76.49
2018-11-13T19:17:57.697Z,75.77
2018-11-13T19:20:26.553Z,76.19
2018-11-13T19:22:54.717Z,76.72
2018-11-13T19:25:29.309Z,77.34
2018-11-13T19:27:58.000Z,76.50
2018-11-13T19:30:26.193Z,75.85
2018-11-13T19:32:54.409Z,75.83
2018-11-13T19:35:22.909Z,75.76
2018-11-13T19:37:51.034Z,76.82
2018-11-13T19:40:23.776Z,77.68
2018-11-13T19:42:52.679Z,78.79
2018-11-13T19:45:21.251Z,78.85
2018-11-13T19:47:49.369Z,78.68
2018-11-13T19:50:34.293Z,77.91
2018-11-13T19:53:02.494Z,77.51
2018-11-13T19:55:31.195Z,78.98
2018-11-13T19:57:59.493Z,78.53
2018-11-13T20:00:29.719Z,79.53
2018-11-13T20:02:59.255Z,78.73
2018-11-13T20:05:28.260Z,79.39
2018-11-13T20:07:56.474Z,79.83
2018-11-13T20:10:25.899Z,79.98
2018-11-13T20:12:55.039Z,80.36
2018-11-13T20:15:24.214Z,81.26
2018-11-13T20:17:52.410Z,80.47
2018-11-13T20:20:24.978Z,80.88
2018-11-13T20:22:53.867Z,82.14
2018-11-13T20:25:24.181Z,81.01
2018-11-13T20:27:52.390Z,82.16
2018-11-13T20:30:22.868Z,82.26
2018-11-13T20:32:51.058Z,82.67
2018-11-13T20:35:19.261Z,82.78
2018-11-13T20:37:48.135Z,82.42
2018-11-13T20:40:17.638Z,82.62
2018-11-13T20:42:47.062Z,81.78
2018-11-13T20:45:15.297Z,82.48
2018-11-13T20:47:43.475Z,82.57
2018-11-13T20:50:13.622Z,82.55
2018-11-13T20:52:41.833Z,83.56
2018-11-13T20:55:10.477Z,82.48
2018-11-13T20:57:38.950Z,83.31
2018-11-13T21:00:14.622Z,82.90
2018-11-13T21:02:42.839Z,83.51
2018-11-13T21:05:11.061Z,84.88
2018-11-13T21:07:39.280Z,84.52
2018-11-13T21:10:09.434Z,84.40
2018-11-13T21:12:37.629Z,83.60
2018-11-13T21:15:07.671Z,84.57
2018-11-13T21:17:35.970Z,84.18
2018-11-13T21:20:04.778Z,84.58
2018-11-13T21:22:32.970Z,84.66
2018-11-13T21:25:01.196Z,84.57
2018-11-13T21:27:29.389Z,85.03
2018-11-13T21:29:57.627Z,84.56
2018-11-13T21:32:25.781Z,84.27
2018-11-13T21:34:53.977Z,84.51
2018-11-13T21:37:22.191Z,84.94
2018-11-13T21:39:50.385Z,84.40
2018-11-13T21:42:18.573Z,85.25
2018-11-13T21:44:46.765Z,84.49
2018-11-13T21:47:14.965Z,84.94
2018-11-13T21:49:43.196Z,84.45
2018-11-13T21:52:11.376Z,84.96
2018-11-13T21:54:39.564Z,85.44
2018-11-13T21:57:07.776Z,85.55
2018-11-13T21:59:35.978Z,85.43
2018-11-13T22:02:04.200Z,85.13
2018-11-13T22:04:32.451Z,85.32
2018-11-13T22:07:00.609Z,85.80
2018-11-13T22:09:28.823Z,85.36
2018-11-13T22:11:57.119Z,84.97
2018-11-13T22:14:25.308Z,85.87
2018-11-13T22:16:53.528Z,85.46
2018-11-13T22:19:21.710Z,84.83
2018-11-13T22:21:49.921Z,84.66
2018-11-13T22:24:18.130Z,85.23
2018-11-13T22:26:46.348Z,85.28
2018-11-13T22:29:17.963Z,84.89
2018-11-13T22:31:46.070Z,86.40
2018-11-13T22:34:14.357Z,85.95
2018-11-13T22:36:42.637Z,86.07
2018-11-13T22:39:14.193Z,86.57
2018-11-13T22:41:42.486Z,86.67
2018-11-13T22:44:13.821Z,86.82
2018-11-13T22:46:42.085Z,87.00
2018-11-13T22:49:10.391Z,86.53
2018-11-13T22:51:38.591Z,87.13
2018-11-13T22:54:06.821Z,87.60
2018-11-13T22:56:35.019Z,86.60
2018-11-13T22:59:03.257Z,86.87
2018-11-13T23:01:31.478Z,86.34
2018-11-13T23:03:59.702Z,86.37
2018-11-13T23:06:28.030Z,86.18
2018-11-13T23:08:56.240Z,87.96
2018-11-13T23:11:24.421Z,87.92
2018-11-13T23:13:52.621Z,87.94
2018-11-13T23:16:20.828Z,88.16
2018-11-13T23:18:49.051Z,88.10
2018-11-13T23:21:17.333Z,88.16
2018-11-13T23:23:45.532Z,87.92
2018-11-13T23:26:13.747Z,87.65
2018-11-13T23:28:41.953Z,87.39
2018-11-13T23:31:10.136Z,87.18
2018-11-13T23:33:38.343Z,87.27
2018-11-13T23:36:06.676Z,88.01
2018-11-13T23:38:34.809Z,88.07
2018-11-13T23:41:03.010Z,88.85
2018-11-13T23:43:31.209Z,88.77
2018-11-13T23:45:59.422Z,89.93
2018-11-13T23:48:27.622Z,89.27
2018-11-13T23:50:55.825Z,88.61
2018-11-13T23:53:24.008Z,88.23
2018-11-13T23:55:52.212Z,90.13
2018-11-13T23:58:20.418Z,89.24
